sensor_id;sensor_type;location;lat;lon;timestamp;temperature;humidity
24011;DHT22;12217;50.792;4.372;2022-11-20T00:00:38;7.10;99.90
24011;DHT22;12217;50.792;4.372;2022-11-20T00:03:03;7.20;99.90
24011;DHT22;12217;50.792;4.372;2022-11-20T00:05:32;7.20;99.90
24011;DHT22;12217;50.792;4.372;2022-11-20T00:07:58;7.20;99.90
24011;DHT22;12217;50.792;4.372;2022-11-20T00:10:23;7.20;99.90
24011;DHT22;12217;50.792;4.372;2022-11-20T00:12:49;7.20;99.90
24011;DHT22;12217;50.792;4.372;2022-11-20T00:15:15;7.20;99.90
24011;DHT22;12217;50.792;4.372;2022-11-20T00:17:40;7.30;99.90
24011;DHT22;12217;50.792;4.372;2022-11-20T00:20:06;7.30;99.90
24011;DHT22;12217;50.792;4.372;2022-11-20T00:22:32;7.30;99.90
24011;DHT22;12217;50.792;4.372;2022-11-20T00:24:57;7.30;99.90
24011;DHT22;12217;50.792;4.372;2022-11-20T00:27:23;7.30;99.90
24011;DHT22;12217;50.792;4.372;2022-11-20T00:29:49;7.20;99.90
24011;DHT22;12217;50.792;4.372;2022-11-20T00:32:15;7.30;99.90
24011;DHT22;12217;50.792;4.372;2022-11-20T00:34:40;7.30;99.90
24011;DHT22;12217;50.792;4.372;2022-11-20T00:37:06;7.30;99.90
24011;DHT22;12217;50.792;4.372;2022-11-20T00:39:32;7.30;99.90
24011;DHT22;12217;50.792;4.372;2022-11-20T00:41:57;7.30;99.90
24011;DHT22;12217;50.792;4.372;2022-11-20T00:44:23;7.20;99.90
24011;DHT22;12217;50.792;4.372;2022-11-20T00:46:48;7.30;99.90
24011;DHT22;12217;50.792;4.372;2022-11-20T00:49:14;7.20;99.90
24011;DHT22;12217;50.792;4.372;2022-11-20T00:51:40;7.30;99.90
24011;DHT22;12217;50.792;4.372;2022-11-20T00:54:05;7.20;99.90
24011;DHT22;12217;50.792;4.372;2022-11-20T00:56:31;7.20;99.90
24011;DHT22;12217;50.792;4.372;2022-11-20T00:58:59;7.10;99.90
24011;DHT22;12217;50.792;4.372;2022-11-20T01:01:26;7.00;99.90
24011;DHT22;12217;50.792;4.372;2022-11-20T01:03:53;6.90;99.90
24011;DHT22;12217;50.792;4.372;2022-11-20T01:06:21;6.90;99.90
24011;DHT22;12217;50.792;4.372;2022-11-20T01:08:48;6.90;99.90
24011;DHT22;12217;50.792;4.372;2022-11-20T01:11:19;7.00;99.90
24011;DHT22;12217;50.792;4.372;2022-11-20T01:13:47;7.10;99.90
24011;DHT22;12217;50.792;4.372;2022-11-20T01:16:22;7.20;99.90
24011;DHT22;12217;50.792;4.372;2022-11-20T01:18:50;7.20;99.90
24011;DHT22;12217;50.792;4.372;2022-11-20T01:21:18;7.20;99.90
24011;DHT22;12217;50.792;4.372;2022-11-20T01:23:45;7.20;99.90
24011;DHT22;12217;50.792;4.372;2022-11-20T01:26:19;7.10;99.90
24011;DHT22;12217;50.792;4.372;2022-11-20T01:28:45;7.20;99.90
24011;DHT22;12217;50.792;4.372;2022-11-20T01:31:23;7.20;99.90
24011;DHT22;12217;50.792;4.372;2022-11-20T01:33:51;7.00;99.90
24011;DHT22;12217;50.792;4.372;2022-11-20T01:36:19;6.90;99.90
24011;DHT22;12217;50.792;4.372;2022-11-20T01:38:45;6.90;99.90
24011;DHT22;12217;50.792;4.372;2022-11-20T01:41:13;6.90;99.90
24011;DHT22;12217;50.792;4.372;2022-11-20T01:43:59;6.70;99.90
24011;DHT22;12217;50.792;4.372;2022-11-20T01:46:25;6.70;99.90
24011;DHT22;12217;50.792;4.372;2022-11-20T01:49:02;6.70;99.90
24011;DHT22;12217;50.792;4.372;2022-11-20T01:51:33;6.70;99.90
24011;DHT22;12217;50.792;4.372;2022-11-20T01:54:03;6.50;99.90
24011;DHT22;12217;50.792;4.372;2022-11-20T01:56:32;6.60;99.90
24011;DHT22;12217;50.792;4.372;2022-11-20T01:59:02;6.60;99.90
24011;DHT22;12217;50.792;4.372;2022-11-20T02:01:29;6.60;99.90
24011;DHT22;12217;50.792;4.372;2022-11-20T02:03:55;6.70;99.90
24011;DHT22;12217;50.792;4.372;2022-11-20T02:06:27;6.70;99.90
24011;DHT22;12217;50.792;4.372;2022-11-20T02:08:54;6.70;99.90
24011;DHT22;12217;50.792;4.372;2022-11-20T02:11:20;6.50;99.90
24011;DHT22;12217;50.792;4.372;2022-11-20T02:13:47;6.60;99.90
24011;DHT22;12217;50.792;4.372;2022-11-20T02:18:45;6.60;99.90
24011;DHT22;12217;50.792;4.372;2022-11-20T02:24:14;6.60;99.90
24011;DHT22;12217;50.792;4.372;2022-11-20T02:26:54;6.70;99.90
24011;DHT22;12217;50.792;4.372;2022-11-20T02:29:47;6.50;99.90
24011;DHT22;12217;50.792;4.372;2022-11-20T02:32:27;6.50;99.90
24011;DHT22;12217;50.792;4.372;2022-11-20T02:34:53;6.50;99.90
24011;DHT22;12217;50.792;4.372;2022-11-20T02:37:19;6.40;99.90
24011;DHT22;12217;50.792;4.372;2022-11-20T02:39:49;6.40;99.90
24011;DHT22;12217;50.792;4.372;2022-11-20T02:42:17;6.50;99.90
24011;DHT22;12217;50.792;4.372;2022-11-20T02:44:42;6.40;99.90
24011;DHT22;12217;50.792;4.372;2022-11-20T02:47:08;6.50;99.90
24011;DHT22;12217;50.792;4.372;2022-11-20T02:49:34;6.50;99.90
24011;DHT22;12217;50.792;4.372;2022-11-20T02:52:00;6.40;99.90
24011;DHT22;12217;50.792;4.372;2022-11-20T02:54:26;6.50;99.90
24011;DHT22;12217;50.792;4.372;2022-11-20T02:56:52;6.50;99.90
24011;DHT22;12217;50.792;4.372;2022-11-20T02:59:17;6.50;99.90
24011;DHT22;12217;50.792;4.372;2022-11-20T03:01:43;6.50;99.90
24011;DHT22;12217;50.792;4.372;2022-11-20T03:04:09;6.60;99.90
24011;DHT22;12217;50.792;4.372;2022-11-20T03:06:34;6.50;99.90
24011;DHT22;12217;50.792;4.372;2022-11-20T03:09:00;6.50;99.90
24011;DHT22;12217;50.792;4.372;2022-11-20T03:11:26;6.50;99.90
24011;DHT22;12217;50.792;4.372;2022-11-20T03:13:51;6.40;99.90
24011;DHT22;12217;50.792;4.372;2022-11-20T03:16:19;6.60;99.90
24011;DHT22;12217;50.792;4.372;2022-11-20T03:18:45;6.60;99.90
24011;DHT22;12217;50.792;4.372;2022-11-20T03:21:12;6.50;99.90
24011;DHT22;12217;50.792;4.372;2022-11-20T03:23:39;6.50;99.90
24011;DHT22;12217;50.792;4.372;2022-11-20T03:28:34;6.50;99.90
24011;DHT22;12217;50.792;4.372;2022-11-20T03:31:09;6.70;99.90
24011;DHT22;12217;50.792;4.372;2022-11-20T03:33:35;6.60;99.90
24011;DHT22;12217;50.792;4.372;2022-11-20T03:36:03;6.60;99.90
24011;DHT22;12217;50.792;4.372;2022-11-20T03:38:30;6.60;99.90
24011;DHT22;12217;50.792;4.372;2022-11-20T03:41:05;6.80;99.90
24011;DHT22;12217;50.792;4.372;2022-11-20T03:43:32;6.70;99.90
24011;DHT22;12217;50.792;4.372;2022-11-20T03:45:57;6.60;99.90
24011;DHT22;12217;50.792;4.372;2022-11-20T03:48:23;6.70;99.90
24011;DHT22;12217;50.792;4.372;2022-11-20T03:50:49;6.60;99.90
24011;DHT22;12217;50.792;4.372;2022-11-20T03:53:16;6.70;99.90
24011;DHT22;12217;50.792;4.372;2022-11-20T03:55:42;6.80;99.90
24011;DHT22;12217;50.792;4.372;2022-11-20T03:58:08;6.70;99.90
24011;DHT22;12217;50.792;4.372;2022-11-20T04:00:34;6.70;99.90
24011;DHT22;12217;50.792;4.372;2022-11-20T04:03:01;6.80;99.90
24011;DHT22;12217;50.792;4.372;2022-11-20T04:05:27;6.80;99.90
24011;DHT22;12217;50.792;4.372;2022-11-20T04:07:53;6.70;99.90
24011;DHT22;12217;50.792;4.372;2022-11-20T04:10:19;6.60;99.90
24011;DHT22;12217;50.792;4.372;2022-11-20T04:12:45;6.60;99.90
24011;DHT22;12217;50.792;4.372;2022-11-20T04:15:10;6.60;99.90
24011;DHT22;12217;50.792;4.372;2022-11-20T04:17:36;6.70;99.90
24011;DHT22;12217;50.792;4.372;2022-11-20T04:20:02;6.60;99.90
24011;DHT22;12217;50.792;4.372;2022-11-20T04:22:28;6.70;99.90
24011;DHT22;12217;50.792;4.372;2022-11-20T04:24:54;6.50;99.90
24011;DHT22;12217;50.792;4.372;2022-11-20T04:27:20;6.40;99.90
24011;DHT22;12217;50.792;4.372;2022-11-20T04:29:46;6.60;99.90
24011;DHT22;12217;50.792;4.372;2022-11-20T04:32:11;6.40;99.90
24011;DHT22;12217;50.792;4.372;2022-11-20T04:34:37;6.50;99.90
24011;DHT22;12217;50.792;4.372;2022-11-20T04:37:03;6.60;99.90
24011;DHT22;12217;50.792;4.372;2022-11-20T04:39:28;6.60;99.90
24011;DHT22;12217;50.792;4.372;2022-11-20T04:41:54;6.50;99.90
24011;DHT22;12217;50.792;4.372;2022-11-20T04:44:39;6.60;99.90
24011;DHT22;12217;50.792;4.372;2022-11-20T04:47:05;6.60;99.90
24011;DHT22;12217;50.792;4.372;2022-11-20T04:49:31;6.30;99.90
24011;DHT22;12217;50.792;4.372;2022-11-20T04:51:58;6.30;99.90
24011;DHT22;12217;50.792;4.372;2022-11-20T04:54:23;6.20;99.90
24011;DHT22;12217;50.792;4.372;2022-11-20T04:56:50;6.20;99.90
24011;DHT22;12217;50.792;4.372;2022-11-20T04:59:15;6.30;99.90
24011;DHT22;12217;50.792;4.372;2022-11-20T05:01:41;6.40;99.90
24011;DHT22;12217;50.792;4.372;2022-11-20T05:04:07;6.40;99.90
24011;DHT22;12217;50.792;4.372;2022-11-20T05:06:33;6.40;99.90
24011;DHT22;12217;50.792;4.372;2022-11-20T05:08:59;6.50;99.90
24011;DHT22;12217;50.792;4.372;2022-11-20T05:11:25;6.50;99.90
24011;DHT22;12217;50.792;4.372;2022-11-20T05:13:51;6.50;99.90
24011;DHT22;12217;50.792;4.372;2022-11-20T05:16:19;6.60;99.90
24011;DHT22;12217;50.792;4.372;2022-11-20T05:18:46;6.70;99.90
24011;DHT22;12217;50.792;4.372;2022-11-20T05:21:12;6.80;99.90
24011;DHT22;12217;50.792;4.372;2022-11-20T05:23:38;6.70;99.90
24011;DHT22;12217;50.792;4.372;2022-11-20T05:26:07;6.60;99.90
24011;DHT22;12217;50.792;4.372;2022-11-20T05:28:33;6.70;99.90
24011;DHT22;12217;50.792;4.372;2022-11-20T05:31:14;6.50;99.90
24011;DHT22;12217;50.792;4.372;2022-11-20T05:33:41;6.70;99.90
24011;DHT22;12217;50.792;4.372;2022-11-20T05:36:07;6.60;99.90
24011;DHT22;12217;50.792;4.372;2022-11-20T05:38:34;6.60;99.90
24011;DHT22;12217;50.792;4.372;2022-11-20T05:41:11;6.60;99.90
24011;DHT22;12217;50.792;4.372;2022-11-20T05:43:38;6.30;99.90
24011;DHT22;12217;50.792;4.372;2022-11-20T05:46:06;6.20;99.90
24011;DHT22;12217;50.792;4.372;2022-11-20T05:48:33;6.20;99.90
24011;DHT22;12217;50.792;4.372;2022-11-20T05:51:00;6.30;99.90
24011;DHT22;12217;50.792;4.372;2022-11-20T05:53:26;6.30;99.90
24011;DHT22;12217;50.792;4.372;2022-11-20T05:55:59;6.30;99.90
24011;DHT22;12217;50.792;4.372;2022-11-20T05:58:25;6.30;99.90
24011;DHT22;12217;50.792;4.372;2022-11-20T06:00:51;6.20;99.90
24011;DHT22;12217;50.792;4.372;2022-11-20T06:03:17;6.20;99.90
24011;DHT22;12217;50.792;4.372;2022-11-20T06:05:42;6.00;99.90
24011;DHT22;12217;50.792;4.372;2022-11-20T06:08:08;5.90;99.90
24011;DHT22;12217;50.792;4.372;2022-11-20T06:10:34;6.10;99.90
24011;DHT22;12217;50.792;4.372;2022-11-20T06:12:59;6.20;99.90
24011;DHT22;12217;50.792;4.372;2022-11-20T06:15:25;6.20;99.90
24011;DHT22;12217;50.792;4.372;2022-11-20T06:17:54;6.20;99.90
24011;DHT22;12217;50.792;4.372;2022-11-20T06:20:21;6.10;99.90
24011;DHT22;12217;50.792;4.372;2022-11-20T06:22:47;6.20;99.90
24011;DHT22;12217;50.792;4.372;2022-11-20T06:25:13;6.30;99.90
24011;DHT22;12217;50.792;4.372;2022-11-20T06:27:39;6.10;99.90
24011;DHT22;12217;50.792;4.372;2022-11-20T06:30:05;6.20;99.90
24011;DHT22;12217;50.792;4.372;2022-11-20T06:32:32;6.10;99.90
24011;DHT22;12217;50.792;4.372;2022-11-20T06:34:57;6.00;99.90
24011;DHT22;12217;50.792;4.372;2022-11-20T06:37:23;6.10;99.90
24011;DHT22;12217;50.792;4.372;2022-11-20T06:39:49;6.20;99.90
24011;DHT22;12217;50.792;4.372;2022-11-20T06:42:14;6.30;99.90
24011;DHT22;12217;50.792;4.372;2022-11-20T06:44:40;6.40;99.90
24011;DHT22;12217;50.792;4.372;2022-11-20T06:47:05;6.50;99.90
24011;DHT22;12217;50.792;4.372;2022-11-20T06:49:31;6.50;99.90
24011;DHT22;12217;50.792;4.372;2022-11-20T06:51:57;6.50;99.90
24011;DHT22;12217;50.792;4.372;2022-11-20T06:54:22;6.40;99.90
24011;DHT22;12217;50.792;4.372;2022-11-20T06:56:48;6.50;99.90
24011;DHT22;12217;50.792;4.372;2022-11-20T06:59:14;6.50;99.90
24011;DHT22;12217;50.792;4.372;2022-11-20T07:01:40;6.60;99.90
24011;DHT22;12217;50.792;4.372;2022-11-20T07:04:05;6.70;99.90
24011;DHT22;12217;50.792;4.372;2022-11-20T07:06:31;6.60;99.90
24011;DHT22;12217;50.792;4.372;2022-11-20T07:08:57;6.60;99.90
24011;DHT22;12217;50.792;4.372;2022-11-20T07:11:24;6.60;99.90
24011;DHT22;12217;50.792;4.372;2022-11-20T07:13:50;6.60;99.90
24011;DHT22;12217;50.792;4.372;2022-11-20T07:16:15;6.50;99.90
24011;DHT22;12217;50.792;4.372;2022-11-20T07:18:41;6.50;99.90
24011;DHT22;12217;50.792;4.372;2022-11-20T07:21:09;6.60;99.90
24011;DHT22;12217;50.792;4.372;2022-11-20T07:23:36;6.60;99.90
24011;DHT22;12217;50.792;4.372;2022-11-20T07:26:06;6.60;99.90
24011;DHT22;12217;50.792;4.372;2022-11-20T07:28:32;6.70;99.90
24011;DHT22;12217;50.792;4.372;2022-11-20T07:30:58;6.90;99.90
24011;DHT22;12217;50.792;4.372;2022-11-20T07:33:24;6.90;99.90
24011;DHT22;12217;50.792;4.372;2022-11-20T07:35:50;6.70;99.90
24011;DHT22;12217;50.792;4.372;2022-11-20T07:38:15;6.70;99.90
24011;DHT22;12217;50.792;4.372;2022-11-20T07:40:41;6.60;99.90
24011;DHT22;12217;50.792;4.372;2022-11-20T07:43:07;6.50;99.90
24011;DHT22;12217;50.792;4.372;2022-11-20T07:45:32;6.40;99.90
24011;DHT22;12217;50.792;4.372;2022-11-20T07:47:58;6.60;99.90
24011;DHT22;12217;50.792;4.372;2022-11-20T07:50:24;6.40;99.90
24011;DHT22;12217;50.792;4.372;2022-11-20T07:52:49;6.30;99.90
24011;DHT22;12217;50.792;4.372;2022-11-20T07:55:16;6.40;99.90
24011;DHT22;12217;50.792;4.372;2022-11-20T07:57:42;6.50;99.90
24011;DHT22;12217;50.792;4.372;2022-11-20T08:00:09;6.50;99.90
24011;DHT22;12217;50.792;4.372;2022-11-20T08:02:39;6.50;99.90
24011;DHT22;12217;50.792;4.372;2022-11-20T08:05:06;6.60;99.90
24011;DHT22;12217;50.792;4.372;2022-11-20T08:07:39;6.60;99.90
24011;DHT22;12217;50.792;4.372;2022-11-20T08:10:06;6.50;99.90
24011;DHT22;12217;50.792;4.372;2022-11-20T08:12:32;6.70;99.90
24011;DHT22;12217;50.792;4.372;2022-11-20T08:15:16;6.80;99.90
24011;DHT22;12217;50.792;4.372;2022-11-20T08:17:42;6.80;99.90
24011;DHT22;12217;50.792;4.372;2022-11-20T08:20:08;6.80;99.90
24011;DHT22;12217;50.792;4.372;2022-11-20T08:22:34;6.80;99.90
24011;DHT22;12217;50.792;4.372;2022-11-20T08:24:59;6.90;99.90
24011;DHT22;12217;50.792;4.372;2022-11-20T08:27:25;6.90;99.90
24011;DHT22;12217;50.792;4.372;2022-11-20T08:29:51;6.90;99.90
24011;DHT22;12217;50.792;4.372;2022-11-20T08:32:16;6.90;99.90
24011;DHT22;12217;50.792;4.372;2022-11-20T08:34:42;7.00;99.90
24011;DHT22;12217;50.792;4.372;2022-11-20T08:37:07;7.00;99.90
24011;DHT22;12217;50.792;4.372;2022-11-20T08:39:33;7.10;99.90
24011;DHT22;12217;50.792;4.372;2022-11-20T08:41:59;7.10;99.90
24011;DHT22;12217;50.792;4.372;2022-11-20T08:44:24;7.20;99.90
24011;DHT22;12217;50.792;4.372;2022-11-20T08:46:50;7.00;99.90
24011;DHT22;12217;50.792;4.372;2022-11-20T08:49:16;7.00;99.90
24011;DHT22;12217;50.792;4.372;2022-11-20T08:51:42;7.00;99.90
24011;DHT22;12217;50.792;4.372;2022-11-20T08:54:08;7.20;99.90
24011;DHT22;12217;50.792;4.372;2022-11-20T08:56:34;7.40;99.90
24011;DHT22;12217;50.792;4.372;2022-11-20T08:59:00;7.40;99.90
24011;DHT22;12217;50.792;4.372;2022-11-20T09:01:26;7.50;99.90
24011;DHT22;12217;50.792;4.372;2022-11-20T09:03:52;7.70;99.90
24011;DHT22;12217;50.792;4.372;2022-11-20T09:06:20;7.70;99.90
24011;DHT22;12217;50.792;4.372;2022-11-20T09:08:46;7.90;99.90
24011;DHT22;12217;50.792;4.372;2022-11-20T09:11:11;7.90;99.90
24011;DHT22;12217;50.792;4.372;2022-11-20T09:13:37;7.90;99.90
24011;DHT22;12217;50.792;4.372;2022-11-20T09:16:05;8.10;99.90
24011;DHT22;12217;50.792;4.372;2022-11-20T09:18:32;8.10;99.90
24011;DHT22;12217;50.792;4.372;2022-11-20T09:20:59;7.90;99.90
24011;DHT22;12217;50.792;4.372;2022-11-20T09:23:25;7.90;99.90
24011;DHT22;12217;50.792;4.372;2022-11-20T09:25:51;8.00;99.90
24011;DHT22;12217;50.792;4.372;2022-11-20T09:28:18;8.10;99.90
24011;DHT22;12217;50.792;4.372;2022-11-20T09:30:44;8.20;99.90
24011;DHT22;12217;50.792;4.372;2022-11-20T09:33:09;8.20;99.90
24011;DHT22;12217;50.792;4.372;2022-11-20T09:35:35;8.10;99.90
24011;DHT22;12217;50.792;4.372;2022-11-20T09:38:07;8.10;99.90
24011;DHT22;12217;50.792;4.372;2022-11-20T09:40:35;8.10;99.90
24011;DHT22;12217;50.792;4.372;2022-11-20T09:46:07;8.30;99.90
24011;DHT22;12217;50.792;4.372;2022-11-20T09:56:44;8.30;99.90
24011;DHT22;12217;50.792;4.372;2022-11-20T10:02:01;8.30;99.90
24011;DHT22;12217;50.792;4.372;2022-11-20T10:04:30;8.30;99.90
24011;DHT22;12217;50.792;4.372;2022-11-20T10:07:07;8.40;99.90
24011;DHT22;12217;50.792;4.372;2022-11-20T10:09:40;8.30;99.90
24011;DHT22;12217;50.792;4.372;2022-11-20T10:12:18;8.40;99.90
24011;DHT22;12217;50.792;4.372;2022-11-20T10:20:17;8.60;99.90
24011;DHT22;12217;50.792;4.372;2022-11-20T10:25:20;8.80;99.90
24011;DHT22;12217;50.792;4.372;2022-11-20T10:30:36;8.90;99.90
24011;DHT22;12217;50.792;4.372;2022-11-20T10:33:31;8.90;99.90
24011;DHT22;12217;50.792;4.372;2022-11-20T10:38:54;9.00;99.90
24011;DHT22;12217;50.792;4.372;2022-11-20T10:41:34;9.10;99.90
24011;DHT22;12217;50.792;4.372;2022-11-20T10:44:03;9.10;99.90
24011;DHT22;12217;50.792;4.372;2022-11-20T10:47:00;9.00;99.90
24011;DHT22;12217;50.792;4.372;2022-11-20T10:49:25;8.90;99.90
24011;DHT22;12217;50.792;4.372;2022-11-20T10:58:10;9.20;99.90
24011;DHT22;12217;50.792;4.372;2022-11-20T11:00:38;9.00;99.90
24011;DHT22;12217;50.792;4.372;2022-11-20T11:03:26;9.10;99.90
24011;DHT22;12217;50.792;4.372;2022-11-20T11:08:50;9.00;99.90
24011;DHT22;12217;50.792;4.372;2022-11-20T11:11:28;9.10;99.90
24011;DHT22;12217;50.792;4.372;2022-11-20T11:16:30;9.00;99.90
24011;DHT22;12217;50.792;4.372;2022-11-20T11:19:25;8.90;99.90
24011;DHT22;12217;50.792;4.372;2022-11-20T11:21:55;8.90;99.90
24011;DHT22;12217;50.792;4.372;2022-11-20T11:24:24;8.80;99.90
24011;DHT22;12217;50.792;4.372;2022-11-20T11:26:53;8.90;99.90
24011;DHT22;12217;50.792;4.372;2022-11-20T11:29:20;8.80;99.90
24011;DHT22;12217;50.792;4.372;2022-11-20T11:31:46;8.90;99.90
24011;DHT22;12217;50.792;4.372;2022-11-20T11:34:16;8.80;99.90
24011;DHT22;12217;50.792;4.372;2022-11-20T11:36:52;8.70;99.90
24011;DHT22;12217;50.792;4.372;2022-11-20T11:39:20;8.70;99.90
24011;DHT22;12217;50.792;4.372;2022-11-20T11:41:47;8.70;99.90
24011;DHT22;12217;50.792;4.372;2022-11-20T11:44:21;8.60;99.90
24011;DHT22;12217;50.792;4.372;2022-11-20T11:50:23;8.60;99.90
24011;DHT22;12217;50.792;4.372;2022-11-20T11:53:01;8.60;99.90
24011;DHT22;12217;50.792;4.372;2022-11-20T12:06:39;8.20;99.90
24011;DHT22;12217;50.792;4.372;2022-11-20T12:09:11;8.30;99.90
24011;DHT22;12217;50.792;4.372;2022-11-20T12:11:49;8.30;99.90
24011;DHT22;12217;50.792;4.372;2022-11-20T12:14:35;8.40;99.90
24011;DHT22;12217;50.792;4.372;2022-11-20T12:17:02;8.40;99.90
24011;DHT22;12217;50.792;4.372;2022-11-20T12:19:32;8.40;99.90
24011;DHT22;12217;50.792;4.372;2022-11-20T12:27:51;8.50;99.90
24011;DHT22;12217;50.792;4.372;2022-11-20T12:30:20;8.60;99.90
24011;DHT22;12217;50.792;4.372;2022-11-20T12:33:48;8.60;99.90
24011;DHT22;12217;50.792;4.372;2022-11-20T12:38:55;8.30;99.90
24011;DHT22;12217;50.792;4.372;2022-11-20T12:50:14;8.60;99.90
24011;DHT22;12217;50.792;4.372;2022-11-20T12:53:02;8.50;99.90
24011;DHT22;12217;50.792;4.372;2022-11-20T12:55:41;8.40;99.90
24011;DHT22;12217;50.792;4.372;2022-11-20T12:58:21;8.30;99.90
24011;DHT22;12217;50.792;4.372;2022-11-20T13:06:51;8.30;99.90
24011;DHT22;12217;50.792;4.372;2022-11-20T13:09:20;8.40;99.90
24011;DHT22;12217;50.792;4.372;2022-11-20T13:17:18;8.40;99.90
24011;DHT22;12217;50.792;4.372;2022-11-20T13:19:57;8.50;99.90
24011;DHT22;12217;50.792;4.372;2022-11-20T13:22:28;8.50;99.90
24011;DHT22;12217;50.792;4.372;2022-11-20T13:24:55;8.20;99.90
24011;DHT22;12217;50.792;4.372;2022-11-20T13:27:24;8.20;99.90
24011;DHT22;12217;50.792;4.372;2022-11-20T13:30:21;8.10;99.90
24011;DHT22;12217;50.792;4.372;2022-11-20T13:32:53;8.20;99.90
24011;DHT22;12217;50.792;4.372;2022-11-20T13:35:30;8.30;99.90
24011;DHT22;12217;50.792;4.372;2022-11-20T13:40:27;8.10;99.90
24011;DHT22;12217;50.792;4.372;2022-11-20T13:43:00;8.00;99.90
24011;DHT22;12217;50.792;4.372;2022-11-20T13:45:29;8.10;99.90
24011;DHT22;12217;50.792;4.372;2022-11-20T13:47:55;8.00;99.90
24011;DHT22;12217;50.792;4.372;2022-11-20T13:50:40;8.10;99.90
24011;DHT22;12217;50.792;4.372;2022-11-20T13:58:51;8.20;99.90
24011;DHT22;12217;50.792;4.372;2022-11-20T14:01:26;8.20;99.90
24011;DHT22;12217;50.792;4.372;2022-11-20T14:03:52;8.30;99.90
24011;DHT22;12217;50.792;4.372;2022-11-20T14:06:28;8.20;99.90
24011;DHT22;12217;50.792;4.372;2022-11-20T14:08:55;8.20;99.90
24011;DHT22;12217;50.792;4.372;2022-11-20T14:11:26;8.20;99.90
24011;DHT22;12217;50.792;4.372;2022-11-20T14:13:52;8.10;99.90
24011;DHT22;12217;50.792;4.372;2022-11-20T14:16:20;8.00;99.90
24011;DHT22;12217;50.792;4.372;2022-11-20T14:18:46;8.10;99.90
24011;DHT22;12217;50.792;4.372;2022-11-20T14:21:21;8.10;99.90
24011;DHT22;12217;50.792;4.372;2022-11-20T14:23:47;8.10;99.90
24011;DHT22;12217;50.792;4.372;2022-11-20T14:26:17;8.10;99.90
24011;DHT22;12217;50.792;4.372;2022-11-20T14:28:47;8.10;99.90
24011;DHT22;12217;50.792;4.372;2022-11-20T14:31:21;8.20;99.90
24011;DHT22;12217;50.792;4.372;2022-11-20T14:33:48;8.10;99.90
24011;DHT22;12217;50.792;4.372;2022-11-20T14:36:18;8.10;99.90
24011;DHT22;12217;50.792;4.372;2022-11-20T14:38:45;8.10;99.90
24011;DHT22;12217;50.792;4.372;2022-11-20T14:41:20;8.10;99.90
24011;DHT22;12217;50.792;4.372;2022-11-20T14:43:56;8.10;99.90
24011;DHT22;12217;50.792;4.372;2022-11-20T14:46:23;8.10;99.90
24011;DHT22;12217;50.792;4.372;2022-11-20T14:48:55;8.10;99.90
24011;DHT22;12217;50.792;4.372;2022-11-20T14:51:34;8.20;99.90
24011;DHT22;12217;50.792;4.372;2022-11-20T14:54:19;8.10;99.90
24011;DHT22;12217;50.792;4.372;2022-11-20T14:57:01;8.20;99.90
24011;DHT22;12217;50.792;4.372;2022-11-20T14:59:33;8.10;99.90
24011;DHT22;12217;50.792;4.372;2022-11-20T15:02:00;8.20;99.90
24011;DHT22;12217;50.792;4.372;2022-11-20T15:04:27;8.20;99.90
24011;DHT22;12217;50.792;4.372;2022-11-20T15:06:56;8.20;99.90
24011;DHT22;12217;50.792;4.372;2022-11-20T15:09:21;8.20;99.90
24011;DHT22;12217;50.792;4.372;2022-11-20T15:11:58;8.20;99.90
24011;DHT22;12217;50.792;4.372;2022-11-20T15:14:27;8.30;99.90
24011;DHT22;12217;50.792;4.372;2022-11-20T15:16:53;8.30;99.90
24011;DHT22;12217;50.792;4.372;2022-11-20T15:19:22;8.30;99.90
24011;DHT22;12217;50.792;4.372;2022-11-20T15:21:48;8.50;99.90
24011;DHT22;12217;50.792;4.372;2022-11-20T15:24:14;8.50;99.90
24011;DHT22;12217;50.792;4.372;2022-11-20T15:26:39;8.60;99.90
24011;DHT22;12217;50.792;4.372;2022-11-20T15:29:09;8.80;99.90
24011;DHT22;12217;50.792;4.372;2022-11-20T15:31:36;8.80;99.90
24011;DHT22;12217;50.792;4.372;2022-11-20T15:34:04;8.80;99.90
24011;DHT22;12217;50.792;4.372;2022-11-20T15:36:32;8.70;99.90
24011;DHT22;12217;50.792;4.372;2022-11-20T15:38:57;8.70;99.90
24011;DHT22;12217;50.792;4.372;2022-11-20T15:41:23;8.70;99.90
24011;DHT22;12217;50.792;4.372;2022-11-20T15:43:48;8.60;99.90
24011;DHT22;12217;50.792;4.372;2022-11-20T15:46:17;8.60;99.90
24011;DHT22;12217;50.792;4.372;2022-11-20T15:48:52;8.60;99.90
24011;DHT22;12217;50.792;4.372;2022-11-20T15:51:31;8.70;99.90
24011;DHT22;12217;50.792;4.372;2022-11-20T15:53:58;8.80;99.90
24011;DHT22;12217;50.792;4.372;2022-11-20T15:56:24;8.80;99.90
24011;DHT22;12217;50.792;4.372;2022-11-20T15:58:50;8.80;99.90
24011;DHT22;12217;50.792;4.372;2022-11-20T16:01:18;8.80;99.90
24011;DHT22;12217;50.792;4.372;2022-11-20T16:03:44;8.70;99.90
24011;DHT22;12217;50.792;4.372;2022-11-20T16:06:09;8.70;99.90
24011;DHT22;12217;50.792;4.372;2022-11-20T16:08:35;8.80;99.90
24011;DHT22;12217;50.792;4.372;2022-11-20T16:11:01;8.90;99.90
24011;DHT22;12217;50.792;4.372;2022-11-20T16:13:26;8.90;99.90
24011;DHT22;12217;50.792;4.372;2022-11-20T16:16:23;8.90;99.90
24011;DHT22;12217;50.792;4.372;2022-11-20T16:18:49;9.10;99.90
24011;DHT22;12217;50.792;4.372;2022-11-20T16:21:15;9.00;99.90
24011;DHT22;12217;50.792;4.372;2022-11-20T16:23:41;9.10;99.90
24011;DHT22;12217;50.792;4.372;2022-11-20T16:26:16;9.10;99.90
24011;DHT22;12217;50.792;4.372;2022-11-20T16:28:46;9.00;99.90
24011;DHT22;12217;50.792;4.372;2022-11-20T16:31:21;8.90;99.90
24011;DHT22;12217;50.792;4.372;2022-11-20T16:33:50;8.90;99.90
24011;DHT22;12217;50.792;4.372;2022-11-20T16:36:16;9.00;99.90
24011;DHT22;12217;50.792;4.372;2022-11-20T16:38:42;8.90;99.90
24011;DHT22;12217;50.792;4.372;2022-11-20T16:41:09;8.90;99.90
24011;DHT22;12217;50.792;4.372;2022-11-20T16:43:52;8.90;99.90
24011;DHT22;12217;50.792;4.372;2022-11-20T16:46:20;8.90;99.90
24011;DHT22;12217;50.792;4.372;2022-11-20T16:48:53;9.10;99.90
24011;DHT22;12217;50.792;4.372;2022-11-20T16:51:19;9.00;99.90
24011;DHT22;12217;50.792;4.372;2022-11-20T16:53:45;8.90;99.90
24011;DHT22;12217;50.792;4.372;2022-11-20T16:56:16;9.00;99.90
24011;DHT22;12217;50.792;4.372;2022-11-20T16:58:45;8.90;99.90
24011;DHT22;12217;50.792;4.372;2022-11-20T17:01:14;8.80;99.90
24011;DHT22;12217;50.792;4.372;2022-11-20T17:03:41;8.80;99.90
24011;DHT22;12217;50.792;4.372;2022-11-20T17:06:16;8.80;99.90
24011;DHT22;12217;50.792;4.372;2022-11-20T17:08:42;8.90;99.90
24011;DHT22;12217;50.792;4.372;2022-11-20T17:11:10;8.80;99.90
24011;DHT22;12217;50.792;4.372;2022-11-20T17:13:36;8.80;99.90
24011;DHT22;12217;50.792;4.372;2022-11-20T17:16:05;8.90;99.90
24011;DHT22;12217;50.792;4.372;2022-11-20T17:18:31;8.90;99.90
24011;DHT22;12217;50.792;4.372;2022-11-20T17:20:57;8.80;99.90
24011;DHT22;12217;50.792;4.372;2022-11-20T17:23:27;8.80;99.90
24011;DHT22;12217;50.792;4.372;2022-11-20T17:26:03;8.90;99.90
24011;DHT22;12217;50.792;4.372;2022-11-20T17:28:29;8.80;99.90
24011;DHT22;12217;50.792;4.372;2022-11-20T17:31:08;8.70;99.90
24011;DHT22;12217;50.792;4.372;2022-11-20T17:33:35;8.60;99.90